Hanover, Illinois
Current Conditions -  °F | °C
As of 3:35 AM on Friday 24 Oct 2014 (Local Time) from KSFY Reporting Station
Moderate Fog Moderate Fog  
Wind Chill: 46°   Ceiling: 100
Heat Index: 46°   Visibility: 0mi
Dew Point: 44°   Wind: 0mph
Humidity: 95%   Direction: NA
Pressure: 30.06"   Gusts: NA
Location:  42.26°N, 90.28°W
Report Text: KSFY 240835Z AUTO 00000KT M1/4SM FG OVC001 08/07 A3006 RMK AO2 T00760068
Loading
Personal Weather Stations






























Interactive Weather Map
Tropical Storm Tracking
New forecast layout! Learn more

10-Day Weather Forecast

Advertisements
Track Severe Weather on mobile